Time;durP1;ratioP1;P1;durP2;ratioP2;P2;SDS_P1;SDS_P2;PMS_P1;PMS_P2;Temp;Humidity;BMP_temperature;BMP_pressure;BME280_temperature;BME280_humidity;BME280_pressure;Samples;Min_cycle;Max_cycle;Signal;HPM_P1;HPM_P2
2024/05/06 00:00:21;;;;;;;0.63;0.63;;;13.20;99.90;;;;;;5415339;26;20396;-82
2024/05/06 00:02:50;;;;;;;0.80;0.60;;;13.20;99.90;;;;;;5423327;26;20719;-82
2024/05/06 00:05:19;;;;;;;0.68;0.68;;;13.10;99.90;;;;;;5400317;26;20246;-82
2024/05/06 00:07:47;;;;;;;1.55;0.93;;;13.10;99.90;;;;;;5390938;26;20242;-82
2024/05/06 00:10:16;;;;;;;0.60;0.60;;;13.10;99.90;;;;;;5423116;26;20321;-82
2024/05/06 00:12:48;;;;;;;1.02;0.68;;;13.10;99.90;;;;;;5418580;26;20242;-82
2024/05/06 00:15:16;;;;;;;0.60;0.60;;;13.00;99.90;;;;;;5407059;26;20377;-83
2024/05/06 00:17:45;;;;;;;0.70;0.70;;;13.00;99.90;;;;;;5412102;26;20286;-83
2024/05/06 00:20:14;;;;;;;1.08;0.70;;;13.00;99.90;;;;;;5413689;26;20250;-82
2024/05/06 00:22:42;;;;;;;1.80;0.60;;;12.90;99.90;;;;;;5434300;26;20315;-82
2024/05/06 00:25:11;;;;;;;0.57;0.57;;;13.00;99.90;;;;;;5420988;26;20241;-82
2024/05/06 00:27:40;;;;;;;0.40;0.40;;;12.90;99.90;;;;;;5422973;26;20294;-82
2024/05/06 00:30:19;;;;;;;1.65;0.60;;;12.90;99.90;;;;;;5417291;26;20851;-83
2024/05/06 00:32:47;;;;;;;0.70;0.70;;;12.90;99.90;;;;;;5409673;26;20241;-83
2024/05/06 00:35:16;;;;;;;0.60;0.60;;;12.90;99.90;;;;;;5412917;26;20312;-81
2024/05/06 00:37:45;;;;;;;0.70;0.53;;;12.90;99.90;;;;;;5415567;26;20246;-83
2024/05/06 00:40:14;;;;;;;0.70;0.70;;;12.90;99.90;;;;;;5414685;26;20313;-83
2024/05/06 00:42:42;;;;;;;0.70;0.60;;;12.90;99.90;;;;;;5417312;26;20333;-82
2024/05/06 00:45:16;;;;;;;0.67;0.60;;;12.90;99.90;;;;;;5418135;26;20283;-82
2024/05/06 00:47:44;;;;;;;0.70;0.70;;;12.80;99.90;;;;;;5409790;26;20289;-81
2024/05/06 00:50:14;;;;;;;0.73;0.73;;;12.70;99.90;;;;;;5421108;26;20331;-83
2024/05/06 00:52:42;;;;;;;0.70;0.70;;;12.70;99.90;;;;;;5413844;26;20332;-82
2024/05/06 00:55:11;;;;;;;0.97;0.60;;;12.60;99.90;;;;;;5423017;26;20784;-83
2024/05/06 00:57:41;;;;;;;0.70;0.70;;;12.70;99.90;;;;;;5415780;26;20233;-83
2024/05/06 01:00:15;;;;;;;0.60;0.60;;;12.60;99.90;;;;;;5420803;26;20297;-82
2024/05/06 01:02:45;;;;;;;0.60;0.60;;;12.60;99.90;;;;;;5420148;26;20287;-82
2024/05/06 01:05:13;;;;;;;1.00;0.70;;;12.40;99.90;;;;;;5409763;26;20724;-82
2024/05/06 01:07:43;;;;;;;1.33;0.70;;;12.40;99.90;;;;;;5437559;26;20293;-82
2024/05/06 01:10:13;;;;;;;0.63;0.63;;;12.40;99.90;;;;;;5401518;26;20371;-83
2024/05/06 01:12:42;;;;;;;0.93;0.70;;;12.50;99.90;;;;;;5423119;26;20716;-83
2024/05/06 01:15:13;;;;;;;1.17;0.70;;;12.50;99.90;;;;;;5417881;26;20772;-83
2024/05/06 01:17:42;;;;;;;1.50;0.60;;;12.40;99.90;;;;;;5422907;26;20336;-82
2024/05/06 01:20:11;;;;;;;0.60;0.40;;;12.40;99.90;;;;;;5408703;26;20250;-82
2024/05/06 01:22:48;;;;;;;0.40;0.40;;;12.40;99.90;;;;;;5417878;26;20241;-84
2024/05/06 01:25:17;;;;;;;0.83;0.50;;;12.40;99.90;;;;;;5423883;26;20237;-82
2024/05/06 01:27:47;;;;;;;0.73;0.67;;;12.30;99.90;;;;;;5421209;26;20301;-82
2024/05/06 01:30:15;;;;;;;0.50;0.40;;;12.30;99.90;;;;;;5403234;26;20618;-82
2024/05/06 01:32:44;;;;;;;1.07;0.60;;;12.30;99.90;;;;;;5399921;26;20349;-82
2024/05/06 01:35:13;;;;;;;1.00;0.80;;;12.20;99.90;;;;;;5414477;26;20245;-81
2024/05/06 01:37:42;;;;;;;0.57;0.57;;;12.20;99.90;;;;;;5422355;26;20280;-83
2024/05/06 01:40:13;;;;;;;0.90;0.50;;;12.40;99.90;;;;;;5410837;26;20302;-83
2024/05/06 01:42:42;;;;;;;0.60;0.60;;;12.30;99.90;;;;;;5415916;26;20323;-82
2024/05/06 01:45:11;;;;;;;0.80;0.70;;;12.30;99.90;;;;;;5418274;26;20830;-83
2024/05/06 01:47:39;;;;;;;1.73;0.63;;;12.10;99.90;;;;;;5411801;26;20243;-83
2024/05/06 01:50:08;;;;;;;0.70;0.50;;;12.10;99.90;;;;;;5416952;26;20253;-83
2024/05/06 01:52:37;;;;;;;0.97;0.67;;;12.10;99.90;;;;;;5417669;26;20885;-83
2024/05/06 01:55:06;;;;;;;0.57;0.57;;;12.10;99.90;;;;;;5392574;26;20289;-82
2024/05/06 01:57:37;;;;;;;1.70;0.57;;;12.10;99.90;;;;;;5413061;26;20249;-82
2024/05/06 02:00:07;;;;;;;3.20;0.70;;;12.10;99.90;;;;;;5387291;26;20329;-83
2024/05/06 02:02:38;;;;;;;1.20;0.50;;;12.00;99.90;;;;;;5390227;26;20356;-81
2024/05/06 02:05:07;;;;;;;0.50;0.50;;;12.00;99.90;;;;;;5411795;26;20346;-83
2024/05/06 02:07:36;;;;;;;0.30;0.30;;;12.00;99.90;;;;;;5417397;26;20354;-82
2024/05/06 02:10:05;;;;;;;0.67;0.67;;;12.00;99.90;;;;;;5413980;26;20350;-82
2024/05/06 02:12:33;;;;;;;0.50;0.50;;;12.00;99.90;;;;;;5407952;26;20266;-82
2024/05/06 02:15:05;;;;;;;0.70;0.70;;;11.90;99.90;;;;;;5412479;26;20289;-82
2024/05/06 02:17:34;;;;;;;0.50;0.50;;;11.90;99.90;;;;;;5407899;26;20308;-82
2024/05/06 02:20:02;;;;;;;0.60;0.53;;;11.90;99.90;;;;;;5411096;26;20246;-82
2024/05/06 02:22:31;;;;;;;0.67;0.67;;;11.90;99.90;;;;;;5414678;26;20357;-84
2024/05/06 02:25:00;;;;;;;0.63;0.50;;;11.80;99.90;;;;;;5409692;26;20276;-83
2024/05/06 02:27:29;;;;;;;0.50;0.50;;;11.80;99.90;;;;;;5415517;26;20371;-83
2024/05/06 02:29:58;;;;;;;0.67;0.50;;;11.80;99.90;;;;;;5413728;26;20375;-83
2024/05/06 02:32:29;;;;;;;0.97;0.60;;;11.80;99.90;;;;;;5408399;26;20285;-83
2024/05/06 02:34:58;;;;;;;0.60;0.60;;;11.80;99.90;;;;;;5400460;26;20249;-83
2024/05/06 02:37:27;;;;;;;0.60;0.60;;;11.80;99.90;;;;;;5390848;26;20245;-82
2024/05/06 02:39:56;;;;;;;0.50;0.50;;;11.70;99.90;;;;;;5419087;26;20245;-82
2024/05/06 02:42:25;;;;;;;0.73;0.70;;;11.80;99.90;;;;;;5411684;26;20830;-83
2024/05/06 02:44:53;;;;;;;2.03;0.70;;;11.80;99.90;;;;;;5417433;26;20285;-82
2024/05/06 02:47:22;;;;;;;0.60;0.60;;;11.70;99.90;;;;;;5417307;26;20272;-83
2024/05/06 02:49:54;;;;;;;0.40;0.40;;;11.80;99.90;;;;;;5417052;26;20297;-83
2024/05/06 02:52:23;;;;;;;0.50;0.50;;;11.70;99.90;;;;;;5417273;26;20280;-83
2024/05/06 02:54:52;;;;;;;0.60;0.60;;;11.70;99.90;;;;;;5416642;26;20234;-84
2024/05/06 02:57:21;;;;;;;0.70;0.60;;;11.60;99.90;;;;;;5416797;26;20245;-83
2024/05/06 02:59:50;;;;;;;0.60;0.50;;;11.60;99.90;;;;;;5417202;26;20297;-84
2024/05/06 03:02:19;;;;;;;0.50;0.50;;;11.60;99.90;;;;;;5417022;26;20234;-83
2024/05/06 03:04:48;;;;;;;0.67;0.67;;;11.50;99.90;;;;;;5416640;26;20229;-83
2024/05/06 03:07:19;;;;;;;0.50;0.50;;;11.40;99.90;;;;;;5416631;26;20229;-83
2024/05/06 03:09:48;;;;;;;0.67;0.67;;;11.40;99.90;;;;;;5416014;26;20245;-84
2024/05/06 03:12:17;;;;;;;1.23;0.60;;;11.40;99.90;;;;;;5416180;26;20269;-83
2024/05/06 03:14:47;;;;;;;0.60;0.60;;;11.50;99.90;;;;;;5416757;26;20708;-83
2024/05/06 03:17:16;;;;;;;0.63;0.63;;;11.50;99.90;;;;;;5416606;26;20284;-83
2024/05/06 03:19:45;;;;;;;0.80;0.70;;;11.40;99.90;;;;;;5417074;26;20241;-83
2024/05/06 03:22:14;;;;;;;0.43;0.43;;;11.40;99.90;;;;;;5416447;26;20273;-83
2024/05/06 03:24:45;;;;;;;0.87;0.67;;;11.40;99.90;;;;;;5416805;26;20237;-83
2024/05/06 03:27:14;;;;;;;0.67;0.67;;;11.40;99.90;;;;;;5416194;26;20229;-83
2024/05/06 03:29:43;;;;;;;1.03;0.80;;;11.30;99.90;;;;;;5415881;26;20337;-83
2024/05/06 03:32:12;;;;;;;1.93;0.63;;;11.30;99.90;;;;;;5416193;26;20789;-84
2024/05/06 03:34:41;;;;;;;0.80;0.80;;;11.30;99.90;;;;;;5416737;26;20229;-83
2024/05/06 03:37:09;;;;;;;0.70;0.70;;;11.30;99.90;;;;;;5416649;26;20343;-83
2024/05/06 03:39:38;;;;;;;1.43;0.70;;;11.30;99.90;;;;;;5417160;26;20277;-84
2024/05/06 03:42:10;;;;;;;0.60;0.60;;;11.30;99.90;;;;;;5416001;26;20322;-83
2024/05/06 03:44:39;;;;;;;1.33;0.80;;;11.20;99.90;;;;;;5416678;26;20226;-83
2024/05/06 03:47:08;;;;;;;1.30;0.80;;;11.00;99.90;;;;;;5419840;26;20740;-84
2024/05/06 03:49:37;;;;;;;1.07;0.70;;;11.10;99.90;;;;;;5419984;26;20241;-82
2024/05/06 03:52:06;;;;;;;2.07;0.93;;;11.10;99.90;;;;;;5419596;26;20282;-83
2024/05/06 03:54:35;;;;;;;0.97;0.87;;;11.10;99.90;;;;;;5420327;26;20273;-83
2024/05/06 03:57:04;;;;;;;1.07;0.80;;;11.10;99.90;;;;;;5419391;26;20336;-83
2024/05/06 03:59:35;;;;;;;1.27;0.80;;;11.10;99.90;;;;;;5417786;26;20241;-82
2024/05/06 04:02:04;;;;;;;0.70;0.70;;;11.00;99.90;;;;;;5418414;26;20233;-83
2024/05/06 04:04:33;;;;;;;0.73;0.73;;;11.10;99.90;;;;;;5419102;26;20333;-83
2024/05/06 04:07:02;;;;;;;0.87;0.87;;;11.10;99.90;;;;;;5418947;26;20288;-83
2024/05/06 04:09:31;;;;;;;0.93;0.80;;;11.10;99.90;;;;;;5418702;26;20289;-83
2024/05/06 04:11:59;;;;;;;1.07;0.97;;;11.10;99.90;;;;;;5418887;26;20271;-83
2024/05/06 04:14:29;;;;;;;1.20;0.63;;;11.10;99.90;;;;;;5419679;26;20265;-83
2024/05/06 04:19:58;;;;;;;1.07;0.87;;;11.10;99.90;;;;;;5418931;26;20250;-84
2024/05/06 04:22:27;;;;;;;1.37;1.10;;;11.10;99.90;;;;;;5419753;26;20660;-84
2024/05/06 04:27:40;;;;;;;1.83;1.10;;;11.00;99.90;;;;;;5420037;26;20270;-83
2024/05/06 04:30:09;;;;;;;1.77;1.30;;;11.10;99.90;;;;;;5417778;26;20290;-83
2024/05/06 04:32:41;;;;;;;1.30;1.20;;;11.20;99.90;;;;;;5416997;26;20288;-84
2024/05/06 04:35:09;;;;;;;1.30;1.20;;;11.20;99.90;;;;;;5417106;26;20355;-84
2024/05/06 04:37:38;;;;;;;1.53;0.90;;;11.20;99.90;;;;;;5416915;26;20230;-84
2024/05/06 04:40:08;;;;;;;1.30;1.20;;;11.30;99.90;;;;;;5416389;26;20249;-83
2024/05/06 04:42:36;;;;;;;3.10;1.67;;;11.30;99.90;;;;;;5416380;26;20773;-84
2024/05/06 04:45:05;;;;;;;0.93;0.93;;;11.40;99.90;;;;;;5416455;26;20229;-83
2024/05/06 04:47:34;;;;;;;1.37;1.20;;;11.40;99.90;;;;;;5416122;26;20266;-83
2024/05/06 04:50:06;;;;;;;2.20;1.30;;;11.50;99.90;;;;;;5415995;26;20320;-84
2024/05/06 04:52:35;;;;;;;1.47;1.30;;;11.50;99.90;;;;;;5416343;26;20222;-84
2024/05/06 04:55:03;;;;;;;1.60;1.50;;;11.50;99.90;;;;;;5416683;26;20268;-84
2024/05/06 04:57:32;;;;;;;1.63;1.30;;;11.60;99.90;;;;;;5416453;26;20302;-84
2024/05/06 05:00:01;;;;;;;1.93;1.40;;;11.70;99.90;;;;;;5418279;26;20706;-83
2024/05/06 05:02:30;;;;;;;1.90;1.30;;;11.80;99.90;;;;;;5416805;26;20230;-83
2024/05/06 05:04:58;;;;;;;1.33;1.23;;;11.90;99.90;;;;;;5418984;26;20229;-83
2024/05/06 05:07:33;;;;;;;0.93;0.93;;;12.00;99.90;;;;;;5420998;26;20281;-82
2024/05/06 05:10:05;;;;;;;1.10;1.00;;;12.20;99.90;;;;;;5419706;26;20581;-82
2024/05/06 05:12:33;;;;;;;1.27;1.20;;;12.20;99.90;;;;;;5418854;26;20617;-83
2024/05/06 05:15:02;;;;;;;0.60;0.60;;;12.30;99.90;;;;;;5418808;26;20744;-83
2024/05/06 05:17:31;;;;;;;1.20;0.90;;;12.30;99.90;;;;;;5419082;26;20234;-82
2024/05/06 05:20:00;;;;;;;1.20;0.80;;;12.40;99.90;;;;;;5420306;26;20372;-83
2024/05/06 05:22:28;;;;;;;1.67;1.00;;;12.40;99.90;;;;;;5418794;26;20281;-82
2024/05/06 05:25:00;;;;;;;0.80;0.80;;;12.60;99.90;;;;;;5420184;26;20558;-83
2024/05/06 05:27:28;;;;;;;0.60;0.60;;;12.50;99.90;;;;;;5420731;26;20320;-83
2024/05/06 05:29:57;;;;;;;2.30;0.80;;;12.50;99.90;;;;;;5420027;26;20242;-83
2024/05/06 05:32:26;;;;;;;1.77;0.87;;;12.60;99.90;;;;;;5419455;26;20268;-83
2024/05/06 05:34:57;;;;;;;0.70;0.70;;;12.70;99.90;;;;;;5419584;26;20229;-83
2024/05/06 05:37:26;;;;;;;0.60;0.60;;;12.90;99.90;;;;;;5420248;26;20225;-82
2024/05/06 05:39:55;;;;;;;2.53;1.00;;;13.00;99.90;;;;;;5420384;26;20245;-82
2024/05/06 05:42:26;;;;;;;0.77;0.77;;;13.00;99.90;;;;;;5419165;26;20237;-83
2024/05/06 05:44:55;;;;;;;2.97;0.90;;;13.00;99.90;;;;;;5417745;26;20226;-82
2024/05/06 05:47:23;;;;;;;1.23;0.88;;;13.10;99.90;;;;;;5418082;26;20222;-82
2024/05/06 05:49:52;;;;;;;2.42;0.90;;;13.20;99.90;;;;;;5417849;26;20364;-82
2024/05/06 05:52:21;;;;;;;1.95;0.80;;;13.30;99.90;;;;;;5418924;26;20233;-82
2024/05/06 05:54:49;;;;;;;1.83;0.95;;;13.40;99.90;;;;;;5418340;26;20230;-81
2024/05/06 05:57:18;;;;;;;2.57;1.20;;;13.50;99.90;;;;;;5418107;26;20699;-85
2024/05/06 05:59:49;;;;;;;1.50;0.73;;;13.50;99.90;;;;;;5418567;26;20371;-82
2024/05/06 06:02:18;;;;;;;0.80;0.80;;;13.50;99.90;;;;;;5419173;26;20350;-82
2024/05/06 06:04:47;;;;;;;2.23;1.17;;;13.50;99.90;;;;;;5418181;26;20589;-81
2024/05/06 06:07:15;;;;;;;1.27;0.90;;;13.50;99.90;;;;;;5418792;26;20294;-82
2024/05/06 06:09:44;;;;;;;2.23;1.07;;;13.60;99.90;;;;;;5417785;26;20242;-82
2024/05/06 06:12:13;;;;;;;1.58;1.20;;;13.70;99.90;;;;;;5419259;26;20263;-82
2024/05/06 06:14:42;;;;;;;4.80;1.10;;;13.80;99.90;;;;;;5419169;26;20233;-82
2024/05/06 06:17:13;;;;;;;3.65;1.17;;;14.00;99.90;;;;;;5417996;26;20249;-83
2024/05/06 06:19:42;;;;;;;5.43;1.48;;;14.40;99.90;;;;;;5419274;26;20309;-82
2024/05/06 06:22:10;;;;;;;1.58;1.27;;;14.60;99.90;;;;;;5418124;26;20233;-82
2024/05/06 06:24:40;;;;;;;1.65;1.10;;;;;;;;;;5419583;26;20234;-81
2024/05/06 06:27:10;;;;;;;1.52;1.30;;;15.20;99.90;;;;;;5418709;26;20561;-82
2024/05/06 06:29:38;;;;;;;2.17;1.25;;;15.10;99.90;;;;;;5418733;26;20297;-81
2024/05/06 06:32:08;;;;;;;1.67;1.30;;;15.40;99.90;;;;;;5417914;26;20340;-81
2024/05/06 06:34:39;;;;;;;0.90;0.88;;;15.50;99.90;;;;;;5418817;26;20306;-81
2024/05/06 06:37:08;;;;;;;0.95;0.93;;;15.70;99.90;;;;;;5417947;26;20651;-82
2024/05/06 06:39:36;;;;;;;2.38;1.30;;;16.00;99.90;;;;;;5417997;26;20242;-81
2024/05/06 06:42:05;;;;;;;1.00;0.90;;;16.10;99.90;;;;;;5417843;26;20407;-82
2024/05/06 06:44:34;;;;;;;3.97;1.27;;;16.00;99.90;;;;;;5417711;26;20276;-82
2024/05/06 06:47:03;;;;;;;2.45;0.90;;;16.00;99.90;;;;;;5418029;26;20221;-81
2024/05/06 06:49:32;;;;;;;2.05;1.02;;;16.00;99.90;;;;;;5417487;26;20245;-82
2024/05/06 06:52:03;;;;;;;1.13;1.00;;;16.20;99.90;;;;;;5417598;26;20230;-81
2024/05/06 06:54:32;;;;;;;1.20;0.95;;;16.30;99.90;;;;;;5417578;26;20499;-82
2024/05/06 06:57:03;;;;;;;1.48;0.90;;;16.50;99.90;;;;;;5418279;26;20267;-82
2024/05/06 06:59:31;;;;;;;0.80;0.80;;;16.50;99.90;;;;;;5417992;26;20338;-82
2024/05/06 07:02:00;;;;;;;2.33;0.90;;;16.70;99.90;;;;;;5417548;26;20230;-83
2024/05/06 07:04:29;;;;;;;1.42;0.77;;;16.80;99.90;;;;;;5417316;26;20325;-83
2024/05/06 07:06:57;;;;;;;0.70;0.70;;;16.90;99.90;;;;;;5417326;26;20233;-83
2024/05/06 07:09:29;;;;;;;2.65;1.10;;;16.90;99.90;;;;;;5417021;26;20593;-83
2024/05/06 07:11:57;;;;;;;1.42;0.52;;;17.00;99.90;;;;;;5417462;26;20329;-83
2024/05/06 07:14:26;;;;;;;0.80;0.70;;;17.00;99.90;;;;;;5416656;26;20368;-82
2024/05/06 07:16:55;;;;;;;0.50;0.50;;;17.00;99.90;;;;;;5417212;26;20596;-82
2024/05/06 07:19:23;;;;;;;1.50;0.75;;;16.80;99.90;;;;;;5417096;26;20316;-82
2024/05/06 07:21:52;;;;;;;1.00;0.77;;;16.80;99.90;;;;;;5420499;26;20237;-82
2024/05/06 07:24:21;;;;;;;1.08;0.80;;;17.00;99.90;;;;;;5420387;26;20281;-84
2024/05/06 07:26:53;;;;;;;0.93;0.73;;;17.20;99.90;;;;;;5420215;26;20708;-83
2024/05/06 07:29:22;;;;;;;1.38;0.80;;;17.30;99.90;;;;;;5420009;26;20249;-83
2024/05/06 07:31:52;;;;;;;0.50;0.50;;;17.50;99.90;;;;;;5419622;26;20293;-82
2024/05/06 07:34:20;;;;;;;0.50;0.47;;;17.70;99.90;;;;;;5419760;26;20264;-84
2024/05/06 07:36:50;;;;;;;0.50;0.50;;;18.00;99.90;;;;;;5398710;26;20234;-84
2024/05/06 07:39:18;;;;;;;2.80;0.57;;;18.30;99.90;;;;;;5383890;26;20242;-83
2024/05/06 07:41:47;;;;;;;0.52;0.52;;;18.60;99.90;;;;;;5384338;26;20246;-83
2024/05/06 07:44:20;;;;;;;0.40;0.40;;;18.80;99.90;;;;;;5406861;26;20269;-83
2024/05/06 07:46:49;;;;;;;0.65;0.52;;;18.90;99.90;;;;;;5419503;26;20616;-83
2024/05/06 07:49:19;;;;;;;0.80;0.50;;;18.90;99.80;;;;;;5419798;26;20332;-83
2024/05/06 07:51:47;;;;;;;1.40;0.70;;;18.80;99.90;;;;;;5420547;26;20272;-83
2024/05/06 07:54:16;;;;;;;0.50;0.50;;;18.60;99.90;;;;;;5419538;26;20281;-82
2024/05/06 07:56:46;;;;;;;0.95;0.77;;;18.60;99.90;;;;;;5419934;26;20221;-83
2024/05/06 07:59:17;;;;;;;0.75;0.73;;;18.50;99.90;;;;;;5406812;26;20714;-82
2024/05/06 08:01:47;;;;;;;0.63;0.60;;;18.50;99.90;;;;;;5384057;26;20290;-83
2024/05/06 08:04:18;;;;;;;1.05;0.63;;;18.50;99.90;;;;;;5383661;26;20234;-82
2024/05/06 08:06:48;;;;;;;0.65;0.57;;;18.60;99.90;;;;;;5400764;26;20229;-83
2024/05/06 08:09:16;;;;;;;1.05;0.57;;;18.60;99.00;;;;;;5418998;26;20241;-84
2024/05/06 08:11:45;;;;;;;0.60;0.60;;;18.80;99.90;;;;;;5433625;26;20249;-83
2024/05/06 08:14:14;;;;;;;1.23;0.60;;;19.00;99.90;;;;;;5418135;26;20245;-83
2024/05/06 08:16:45;;;;;;;0.85;0.47;;;19.20;99.70;;;;;;5419084;26;20232;-83
2024/05/06 08:19:17;;;;;;;1.02;0.57;;;19.30;99.40;;;;;;5421725;26;20240;-83
2024/05/06 08:21:46;;;;;;;1.58;0.73;;;19.40;98.80;;;;;;5420212;26;20238;-84
2024/05/06 08:24:19;;;;;;;0.40;0.40;;;19.50;98.40;;;;;;5415775;26;20351;-83
2024/05/06 08:26:48;;;;;;;1.58;0.43;;;19.50;99.00;;;;;;5417073;26;20281;-83
2024/05/06 08:29:17;;;;;;;0.60;0.50;;;19.50;97.60;;;;;;5418389;26;20296;-84
2024/05/06 08:31:48;;;;;;;0.88;0.50;;;19.60;98.10;;;;;;5408710;26;20245;-85
2024/05/06 08:34:17;;;;;;;1.45;0.50;;;19.60;96.90;;;;;;5392190;26;20367;-84
2024/05/06 08:36:46;;;;;;;2.63;0.65;;;19.60;97.30;;;;;;5403156;26;20305;-83
2024/05/06 08:39:14;;;;;;;2.38;0.60;;;19.50;96.50;;;;;;5421076;26;20747;-83
2024/05/06 08:41:43;;;;;;;0.88;0.40;;;19.40;96.90;;;;;;5402558;26;20245;-84
2024/05/06 08:44:13;;;;;;;0.50;0.47;;;19.50;96.90;;;;;;5409379;26;20297;-83
2024/05/06 08:46:43;;;;;;;1.77;0.40;;;19.60;95.40;;;;;;5409743;26;20253;-82
2024/05/06 08:49:17;;;;;;;0.57;0.47;;;19.90;97.00;;;;;;5404654;26;20295;-83
2024/05/06 08:51:49;;;;;;;1.08;0.45;;;20.00;96.10;;;;;;5407757;26;20843;-84
2024/05/06 08:54:19;;;;;;;0.95;0.55;;;20.20;95.70;;;;;;5400883;26;20338;-84
2024/05/06 08:56:49;;;;;;;0.52;0.52;;;20.30;96.50;;;;;;5402701;26;20245;-84
2024/05/06 08:59:19;;;;;;;0.77;0.30;;;20.50;95.10;;;;;;5413119;26;20309;-84
2024/05/06 09:01:49;;;;;;;1.60;0.50;;;20.70;95.20;;;;;;5411791;26;20305;-84
2024/05/06 09:04:21;;;;;;;0.98;0.50;;;20.90;94.90;;;;;;5418054;26;20222;-84
2024/05/06 09:06:50;;;;;;;1.58;0.52;;;21.20;95.80;;;;;;5410965;26;20328;-83
2024/05/06 09:09:19;;;;;;;0.80;0.50;;;21.40;95.20;;;;;;5416620;26;20250;-84
2024/05/06 09:11:49;;;;;;;1.30;0.50;;;21.50;94.30;;;;;;5402491;26;20294;-84
2024/05/06 09:14:19;;;;;;;1.58;0.50;;;21.70;93.70;;;;;;5424010;26;20238;-83
2024/05/06 09:16:50;;;;;;;2.50;0.77;;;21.90;93.50;;;;;;5404703;26;20692;-84
2024/05/06 09:19:22;;;;;;;0.82;0.50;;;22.30;93.90;;;;;;5407810;26;20249;-83
2024/05/06 09:21:50;;;;;;;2.22;0.45;;;22.70;93.50;;;;;;5412166;26;20242;-84
2024/05/06 09:24:19;;;;;;;1.98;0.60;;;23.00;93.70;;;;;;5407681;26;20736;-83
2024/05/06 09:26:48;;;;;;;0.50;0.50;;;23.20;92.40;;;;;;5411899;26;20286;-84
2024/05/06 09:29:16;;;;;;;1.05;0.45;;;23.40;91.20;;;;;;5412233;26;20375;-84
2024/05/06 09:31:49;;;;;;;1.20;0.40;;;23.70;91.00;;;;;;5406257;26;20946;-83
2024/05/06 09:34:18;;;;;;;2.75;0.43;;;23.80;90.70;;;;;;5401788;26;20246;-83
2024/05/06 09:36:54;;;;;;;2.28;0.47;;;23.90;89.40;;;;;;5387909;26;20361;-86
2024/05/06 09:39:27;;;;;;;1.42;0.40;;;24.20;90.60;;;;;;5405057;26;20367;-85
2024/05/06 09:42:07;;;;;;;1.25;0.50;;;24.30;90.70;;;;;;5397351;26;20303;-83
2024/05/06 09:44:37;;;;;;;1.42;0.38;;;24.20;87.20;;;;;;5407598;26;20687;-84
2024/05/06 09:47:07;;;;;;;2.60;0.60;;;24.30;89.10;;;;;;5409253;26;20249;-87
2024/05/06 09:49:38;;;;;;;0.60;0.52;;;24.30;89.60;;;;;;5416321;26;20245;-81
2024/05/06 09:52:10;;;;;;;1.98;0.50;;;24.50;90.00;;;;;;5419381;26;20296;-85
2024/05/06 09:54:40;;;;;;;0.98;0.65;;;24.70;91.40;;;;;;5416679;26;20241;-85
2024/05/06 09:57:10;;;;;;;2.28;0.60;;;24.80;90.00;;;;;;5416605;26;20292;-83
2024/05/06 09:59:41;;;;;;;1.20;0.55;;;25.00;90.20;;;;;;5400283;26;20316;-85
2024/05/06 10:02:17;;;;;;;2.03;0.68;;;25.20;86.00;;;;;;5416891;26;20716;-84
2024/05/06 10:04:47;;;;;;;0.77;0.38;;;25.20;85.70;;;;;;5418809;26;20568;-85
2024/05/06 10:07:22;;;;;;;1.48;0.50;;;25.50;88.00;;;;;;5416612;26;20288;-85
2024/05/06 10:09:53;;;;;;;2.45;0.50;;;25.70;87.80;;;;;;5407089;26;20241;-87
2024/05/06 10:12:29;;;;;;;2.47;0.80;;;25.70;83.90;;;;;;5404889;26;20855;-82
2024/05/06 10:15:02;;;;;;;0.50;0.50;;;25.80;89.20;;;;;;5402569;26;20287;-84
2024/05/06 10:17:37;;;;;;;0.77;0.70;;;25.80;88.30;;;;;;5404261;26;20243;-83
2024/05/06 10:20:14;;;;;;;1.08;0.70;;;25.90;89.00;;;;;;5407878;26;20790;-83
2024/05/06 10:22:56;;;;;;;0.52;0.47;;;26.00;84.40;;;;;;5418202;26;20241;-83
2024/05/06 10:25:25;;;;;;;0.70;0.43;;;26.10;87.20;;;;;;5407679;26;20315;-84
2024/05/06 10:27:55;;;;;;;1.58;0.88;;;26.20;85.40;;;;;;5428766;26;20337;-84
2024/05/06 10:30:25;;;;;;;1.73;0.80;;;26.20;85.40;;;;;;5398732;26;20265;-85
2024/05/06 10:32:55;;;;;;;3.20;0.95;;;25.90;81.90;;;;;;5392121;26;20341;-83
2024/05/06 10:35:25;;;;;;;2.35;0.70;;;26.10;85.50;;;;;;5398557;26;20243;-83
2024/05/06 10:37:57;;;;;;;2.05;0.80;;;26.10;84.40;;;;;;5399696;26;20241;-82
2024/05/06 10:40:28;;;;;;;0.85;0.60;;;26.30;83.70;;;;;;5412186;26;20253;-83
2024/05/06 10:42:57;;;;;;;1.25;0.70;;;26.50;85.00;;;;;;5412806;26;20286;-86
2024/05/06 10:45:27;;;;;;;1.65;0.85;;;26.50;84.30;;;;;;5400052;26;20729;-82
2024/05/06 10:47:56;;;;;;;1.33;0.77;;;26.60;82.50;;;;;;5418280;26;20245;-80
2024/05/06 10:50:24;;;;;;;2.17;0.80;;;26.70;82.60;;;;;;5410942;26;20326;-80
2024/05/06 10:52:53;;;;;;;1.80;0.70;;;;;;;;;;5407186;26;20249;-84
2024/05/06 10:55:25;;;;;;;0.88;0.70;;;27.50;86.00;;;;;;5405238;26;20254;-81
2024/05/06 10:57:54;;;;;;;3.75;0.63;;;27.80;82.40;;;;;;5414178;26;20342;-81
2024/05/06 11:00:23;;;;;;;0.85;0.60;;;27.80;80.50;;;;;;5406140;26;20712;-82
2024/05/06 11:02:52;;;;;;;2.10;0.60;;;27.50;82.70;;;;;;5413345;26;20736;-81
2024/05/06 11:05:21;;;;;;;1.75;0.90;;;27.40;83.30;;;;;;5413390;26;20321;-81
2024/05/06 11:07:54;;;;;;;2.10;0.90;;;27.50;77.70;;;;;;5422362;26;20242;-81
2024/05/06 11:10:26;;;;;;;1.55;0.60;;;27.60;79.50;;;;;;5414916;26;20284;-81
2024/05/06 11:12:55;;;;;;;1.50;0.73;;;27.70;81.00;;;;;;5421224;26;20459;-85
2024/05/06 11:15:24;;;;;;;0.80;0.70;;;27.50;80.40;;;;;;5403230;26;20812;-81
2024/05/06 11:17:52;;;;;;;5.93;2.00;;;27.50;77.60;;;;;;5416701;26;20305;-84
2024/05/06 11:20:31;;;;;;;2.92;1.05;;;27.40;80.50;;;;;;5417421;26;20252;-79
2024/05/06 11:23:00;;;;;;;1.60;0.90;;;27.40;79.10;;;;;;5413002;26;20271;-84
2024/05/06 11:25:32;;;;;;;2.75;1.50;;;27.20;77.30;;;;;;5412999;26;20316;-83
2024/05/06 11:28:01;;;;;;;1.48;0.80;;;27.20;81.60;;;;;;5415245;26;20304;-83
2024/05/06 11:30:30;;;;;;;2.17;0.90;;;27.50;80.60;;;;;;5415677;26;20382;-82
2024/05/06 11:32:59;;;;;;;1.95;0.70;;;27.60;80.60;;;;;;5401983;26;20268;-81
2024/05/06 11:35:28;;;;;;;1.17;0.77;;;27.60;81.60;;;;;;5400132;26;20261;-81
2024/05/06 11:37:57;;;;;;;1.63;0.85;;;27.60;79.90;;;;;;5402667;26;20677;-82
2024/05/06 11:40:26;;;;;;;2.88;0.90;;;27.70;82.80;;;;;;5419043;26;20272;-81
2024/05/06 11:42:58;;;;;;;2.60;0.60;;;27.90;80.20;;;;;;5412310;26;20334;-84
2024/05/06 11:45:27;;;;;;;2.40;1.00;;;27.80;77.90;;;;;;5404171;26;20243;-83
2024/05/06 11:47:55;;;;;;;1.48;0.80;;;27.80;78.90;;;;;;5415675;26;20358;-84
2024/05/06 11:50:24;;;;;;;0.52;0.50;;;27.90;79.60;;;;;;5407250;26;20367;-82
2024/05/06 11:52:52;;;;;;;0.80;0.63;;;28.00;75.20;;;;;;5403064;26;20771;-81
2024/05/06 11:55:22;;;;;;;3.08;0.90;;;27.90;76.50;;;;;;5401944;26;20278;-83
2024/05/06 11:57:50;;;;;;;0.75;0.60;;;27.70;78.20;;;;;;5407381;26;20753;-81
2024/05/06 12:00:22;;;;;;;2.42;0.93;;;27.90;75.30;;;;;;5408343;26;20666;-83
2024/05/06 12:02:53;;;;;;;1.05;0.70;;;27.80;74.10;;;;;;5407113;26;20326;-80
2024/05/06 12:05:22;;;;;;;2.40;0.68;;;27.60;76.30;;;;;;5421787;26;20245;-83
2024/05/06 12:07:50;;;;;;;1.75;0.65;;;27.80;77.60;;;;;;5409519;26;20685;-81
2024/05/06 12:10:19;;;;;;;3.15;0.70;;;27.90;77.10;;;;;;5399466;26;20332;-80
2024/05/06 12:12:48;;;;;;;0.90;0.50;;;27.90;78.90;;;;;;5417925;26;20288;-81
2024/05/06 12:15:17;;;;;;;1.35;0.75;;;27.80;76.30;;;;;;5419061;26;20264;-81
2024/05/06 12:17:48;;;;;;;2.38;0.80;;;27.90;74.40;;;;;;5419000;26;20284;-81
2024/05/06 12:20:17;;;;;;;0.68;0.57;;;27.70;77.80;;;;;;5417681;26;20241;-82
2024/05/06 12:22:46;;;;;;;2.30;0.50;;;27.60;80.00;;;;;;5421005;26;20225;-81
2024/05/06 12:25:14;;;;;;;0.43;0.43;;;27.80;78.90;;;;;;5417647;26;20854;-84
2024/05/06 12:27:43;;;;;;;0.80;0.55;;;28.00;78.60;;;;;;5418921;26;20306;-82
2024/05/06 12:30:14;;;;;;;1.20;0.50;;;28.10;77.20;;;;;;5412448;26;20297;-81
2024/05/06 12:32:43;;;;;;;1.35;0.60;;;28.20;77.60;;;;;;5387377;26;20752;-80
2024/05/06 12:35:14;;;;;;;2.65;0.60;;;28.20;76.60;;;;;;5398199;26;20238;-81
2024/05/06 12:37:43;;;;;;;0.77;0.50;;;28.30;80.40;;;;;;5420059;26;20355;-82
2024/05/06 12:40:12;;;;;;;1.95;0.70;;;28.50;77.10;;;;;;5413046;26;20362;-82
2024/05/06 12:42:41;;;;;;;0.88;0.70;;;28.50;77.30;;;;;;5413441;26;20293;-83
2024/05/06 12:45:10;;;;;;;2.80;0.50;;;28.50;75.40;;;;;;5419037;26;20824;-81
2024/05/06 12:47:39;;;;;;;1.48;0.73;;;28.90;72.00;;;;;;5418646;26;20242;-81
2024/05/06 12:50:08;;;;;;;1.25;0.60;;;28.90;77.40;;;;;;5398768;26;20245;-83
2024/05/06 12:52:41;;;;;;;1.88;0.68;;;28.70;70.70;;;;;;5408223;26;20244;-83
2024/05/06 12:55:11;;;;;;;0.98;0.65;;;28.40;75.40;;;;;;5415940;26;20288;-81
2024/05/06 12:57:39;;;;;;;0.70;0.60;;;28.40;73.30;;;;;;5405956;26;20270;-83
2024/05/06 13:00:10;;;;;;;1.20;0.50;;;28.20;73.60;;;;;;5404769;26;20344;-82
2024/05/06 13:02:39;;;;;;;0.60;0.60;;;28.30;74.60;;;;;;5427545;26;20287;-82
2024/05/06 13:05:10;;;;;;;2.22;0.60;;;28.30;72.80;;;;;;5417588;26;20237;-84